sensor_id;sensor_type;location;lat;lon;timestamp;P1;P2;P0
57798;PMS7003;43626;53.866;30.298;2023-04-03T00:01:31;4;2.8;1.8
57798;PMS7003;43626;53.866;30.298;2023-04-03T00:06:10;3.6;3.2;1.8
57798;PMS7003;43626;53.866;30.298;2023-04-03T00:11:41;3.2;3;1.6
57798;PMS7003;43626;53.866;30.298;2023-04-03T00:15:59;3.4;3;1.4
57798;PMS7003;43626;53.866;30.298;2023-04-03T00:20:59;4;3.2;1.8
57798;PMS7003;43626;53.866;30.298;2023-04-03T00:26:07;3.4;2.6;1.4
57798;PMS7003;43626;53.866;30.298;2023-04-03T00:31:09;4.4;2.6;1.8
57798;PMS7003;43626;53.866;30.298;2023-04-03T00:36:39;3.8;3.2;2
57798;PMS7003;43626;53.866;30.298;2023-04-03T00:41:23;4;3.4;2
57798;PMS7003;43626;53.866;30.298;2023-04-03T00:46:09;3.2;2.4;1.2
57798;PMS7003;43626;53.866;30.298;2023-04-03T00:51:33;3.6;3.2;1.6
57798;PMS7003;43626;53.866;30.298;2023-04-03T00:56:06;3.4;3;1.4
57798;PMS7003;43626;53.866;30.298;2023-04-03T01:01:39;4;3.3;2
57798;PMS7003;43626;53.866;30.298;2023-04-03T01:06:24;3.4;2.8;1.8
57798;PMS7003;43626;53.866;30.298;2023-04-03T01:10:59;4.2;3.4;2
57798;PMS7003;43626;53.866;30.298;2023-04-03T01:16:31;3.4;3;2
57798;PMS7003;43626;53.866;30.298;2023-04-03T01:21:13;4.6;3.2;1.8
57798;PMS7003;43626;53.866;30.298;2023-04-03T01:26:39;3.8;3.2;1.8
57798;PMS7003;43626;53.866;30.298;2023-04-03T01:31:26;4.2;3.2;2.4
57798;PMS7003;43626;53.866;30.298;2023-04-03T01:35:59;4.2;4;2.2
57798;PMS7003;43626;53.866;30.298;2023-04-03T01:41:26;3.6;3;1.6
57798;PMS7003;43626;53.866;30.298;2023-04-03T01:46:15;5.4;3.6;2.2
57798;PMS7003;43626;53.866;30.298;2023-04-03T01:51:39;4.4;2.8;1.6
57798;PMS7003;43626;53.866;30.298;2023-04-03T01:56:23;5;3.6;2.2
57798;PMS7003;43626;53.866;30.298;2023-04-03T02:01:15;3.8;3.4;2
57798;PMS7003;43626;53.866;30.298;2023-04-03T02:06:31;4;3.8;2
57798;PMS7003;43626;53.866;30.298;2023-04-03T02:10:59;4.8;3.8;2.4
57798;PMS7003;43626;53.866;30.298;2023-04-03T02:16:41;5.8;5;3
57798;PMS7003;43626;53.866;30.298;2023-04-03T02:21:23;7.4;5;3.4
57798;PMS7003;43626;53.866;30.298;2023-04-03T02:26:02;7.6;6;3.8
57798;PMS7003;43626;53.866;30.298;2023-04-03T02:30:59;6.2;5.6;3.8
57798;PMS7003;43626;53.866;30.298;2023-04-03T02:35:59;7.6;5.8;3.6
57798;PMS7003;43626;53.866;30.298;2023-04-03T02:41:41;5.8;5.4;3.6
57798;PMS7003;43626;53.866;30.298;2023-04-03T02:46:25;7.4;5.6;3.8
57798;PMS7003;43626;53.866;30.298;2023-04-03T02:51:05;7.2;5.6;3.4
57798;PMS7003;43626;53.866;30.298;2023-04-03T02:56:09;7.4;6.4;3.6
57798;PMS7003;43626;53.866;30.298;2023-04-03T03:00:59;6.6;5.4;3.6
57798;PMS7003;43626;53.866;30.298;2023-04-03T03:06:39;5.3;5;3.5
57798;PMS7003;43626;53.866;30.298;2023-04-03T03:11:24;5.8;5.4;3.2
57798;PMS7003;43626;53.866;30.298;2023-04-03T03:16:09;7.6;6.2;3.4
57798;PMS7003;43626;53.866;30.298;2023-04-03T03:21:31;6.6;5;3.2
57798;PMS7003;43626;53.866;30.298;2023-04-03T03:26:10;7.6;5.2;3.4
57798;PMS7003;43626;53.866;30.298;2023-04-03T03:31:39;8.2;5.2;3.8
57798;PMS7003;43626;53.866;30.298;2023-04-03T03:36:23;8.6;5.8;3.6
57798;PMS7003;43626;53.866;30.298;2023-04-03T03:41:23;5.4;4.8;3
57798;PMS7003;43626;53.866;30.298;2023-04-03T03:46:37;5.6;4.8;3
57798;PMS7003;43626;53.866;30.298;2023-04-03T03:51:09;7.6;6.4;3.8
57798;PMS7003;43626;53.866;30.298;2023-04-03T03:56:23;7.2;5.2;3.8
57798;PMS7003;43626;53.866;30.298;2023-04-03T04:01:24;5.8;4.8;3.2
57798;PMS7003;43626;53.866;30.298;2023-04-03T04:06:17;9;6;3.8
57798;PMS7003;43626;53.866;30.298;2023-04-03T04:11:27;7.4;5.4;3.2
57798;PMS7003;43626;53.866;30.298;2023-04-03T04:16:09;7.4;5.2;3.2
57798;PMS7003;43626;53.866;30.298;2023-04-03T04:21:23;7.2;6.2;3.6
57798;PMS7003;43626;53.866;30.298;2023-04-03T04:26:17;7.4;5.6;3.6
57798;PMS7003;43626;53.866;30.298;2023-04-03T04:31:23;5;4.6;3.2
57798;PMS7003;43626;53.866;30.298;2023-04-03T04:36:39;7.4;6;3.8
57798;PMS7003;43626;53.866;30.298;2023-04-03T04:41:15;6;5;3.2
57798;PMS7003;43626;53.866;30.298;2023-04-03T04:46:18;8.2;5.4;3.2
57798;PMS7003;43626;53.866;30.298;2023-04-03T04:51:33;6.2;5.4;3.2
57798;PMS7003;43626;53.866;30.298;2023-04-03T04:56:41;6;5;3
57798;PMS7003;43626;53.866;30.298;2023-04-03T05:01:39;5.6;5;3.2
57798;PMS7003;43626;53.866;30.298;2023-04-03T05:06:06;6.8;6.5;4.5
57798;PMS7003;43626;53.866;30.298;2023-04-03T05:11:23;7.2;5.2;3.4
57798;PMS7003;43626;53.866;30.298;2023-04-03T05:15:59;8.6;5.4;3.4
57798;PMS7003;43626;53.866;30.298;2023-04-03T05:21:13;8.2;6.6;3.4
57798;PMS7003;43626;53.866;30.298;2023-04-03T05:26:42;8;7;4.2
57798;PMS7003;43626;53.866;30.298;2023-04-03T05:30:59;7.8;6.2;4
57798;PMS7003;43626;53.866;30.298;2023-04-03T05:36:24;8.4;7.2;3.8
57798;PMS7003;43626;53.866;30.298;2023-04-03T05:40:59;9.8;6.6;4
57798;PMS7003;43626;53.866;30.298;2023-04-03T05:46:23;7.8;6;4
57798;PMS7003;43626;53.866;30.298;2023-04-03T05:51:41;9;7.8;4.6
57798;PMS7003;43626;53.866;30.298;2023-04-03T05:56:15;10.8;7.4;4.6
57798;PMS7003;43626;53.866;30.298;2023-04-03T06:01:23;9;7.4;4
57798;PMS7003;43626;53.866;30.298;2023-04-03T06:06:24;10.3;7.8;4.3
57798;PMS7003;43626;53.866;30.298;2023-04-03T06:11:13;8.2;6.6;4
57798;PMS7003;43626;53.866;30.298;2023-04-03T06:16:01;9.8;8.4;4.2
57798;PMS7003;43626;53.866;30.298;2023-04-03T06:20:59;8.6;6.8;3.8
57798;PMS7003;43626;53.866;30.298;2023-04-03T06:26:15;7.4;6;4
57798;PMS7003;43626;53.866;30.298;2023-04-03T06:31:23;11;8.4;4.6
57798;PMS7003;43626;53.866;30.298;2023-04-03T06:36:06;9.8;8.2;4.8
57798;PMS7003;43626;53.866;30.298;2023-04-03T06:41:37;10;7;4.6
57798;PMS7003;43626;53.866;30.298;2023-04-03T06:46:12;8.6;6.6;4.2
57798;PMS7003;43626;53.866;30.298;2023-04-03T06:51:24;8.8;7.4;4
57798;PMS7003;43626;53.866;30.298;2023-04-03T06:56:00;7.4;6.2;3.8
57798;PMS7003;43626;53.866;30.298;2023-04-03T07:01:24;8.2;6.8;3.8
57798;PMS7003;43626;53.866;30.298;2023-04-03T07:06:41;8.6;6.2;4.4
57798;PMS7003;43626;53.866;30.298;2023-04-03T07:11:00;11.5;8.8;4.8
57798;PMS7003;43626;53.866;30.298;2023-04-03T07:16:39;8.6;7.6;4.8
57798;PMS7003;43626;53.866;30.298;2023-04-03T07:21:13;7.2;6.4;4.2
57798;PMS7003;43626;53.866;30.298;2023-04-03T07:26:23;10.6;8.4;5
57798;PMS7003;43626;53.866;30.298;2023-04-03T07:31:38;11;8.4;4.6
57798;PMS7003;43626;53.866;30.298;2023-04-03T07:36:06;9.6;7.8;5.4
57798;PMS7003;43626;53.866;30.298;2023-04-03T07:41:23;9;7.8;4.8
57798;PMS7003;43626;53.866;30.298;2023-04-03T07:46:32;10.6;8.4;4.4
57798;PMS7003;43626;53.866;30.298;2023-04-03T07:51:18;9.2;8.2;5.2
57798;PMS7003;43626;53.866;30.298;2023-04-03T07:56:40;9;7.4;4.4
57798;PMS7003;43626;53.866;30.298;2023-04-03T08:01:00;7.4;6;3.8
57798;PMS7003;43626;53.866;30.298;2023-04-03T08:06:08;9;6.6;4.4
57798;PMS7003;43626;53.866;30.298;2023-04-03T08:11:30;8.8;6.3;4
57798;PMS7003;43626;53.866;30.298;2023-04-03T08:16:40;6.8;6.6;3.8
57798;PMS7003;43626;53.866;30.298;2023-04-03T08:21:10;7.8;6.4;3.8
57798;PMS7003;43626;53.866;30.298;2023-04-03T08:26:04;8.4;6.4;4.6
57798;PMS7003;43626;53.866;30.298;2023-04-03T08:31:18;7.6;6.2;4.4
57798;PMS7003;43626;53.866;30.298;2023-04-03T08:36:24;13.6;9.8;5.8
57798;PMS7003;43626;53.866;30.298;2023-04-03T08:41:42;10.6;8.2;4.8
57798;PMS7003;43626;53.866;30.298;2023-04-03T08:46:18;13.2;11;6
57798;PMS7003;43626;53.866;30.298;2023-04-03T08:51:00;10.6;8.8;4.8
57798;PMS7003;43626;53.866;30.298;2023-04-03T08:56:38;12.6;9.8;5.8
57798;PMS7003;43626;53.866;30.298;2023-04-03T09:01:33;12.6;10.4;6.2
57798;PMS7003;43626;53.866;30.298;2023-04-03T09:06:40;15.4;12;6.2
57798;PMS7003;43626;53.866;30.298;2023-04-03T09:11:20;13.3;11.8;6.3
57798;PMS7003;43626;53.866;30.298;2023-04-03T09:16:14;12.4;9.6;5.6
57798;PMS7003;43626;53.866;30.298;2023-04-03T09:21:19;10.4;7.4;5.2
57798;PMS7003;43626;53.866;30.298;2023-04-03T09:26:30;9;7.4;4.4
57798;PMS7003;43626;53.866;30.298;2023-04-03T09:31:40;12.6;9.8;6
57798;PMS7003;43626;53.866;30.298;2023-04-03T09:36:00;10.6;9;5.4
57798;PMS7003;43626;53.866;30.298;2023-04-03T09:41:04;8.2;6.8;4.2
57798;PMS7003;43626;53.866;30.298;2023-04-03T09:46:16;9.6;7.8;5
57798;PMS7003;43626;53.866;30.298;2023-04-03T09:51:40;14.2;11.2;6.8
57798;PMS7003;43626;53.866;30.298;2023-04-03T09:56:28;11.2;10.2;6.2
57798;PMS7003;43626;53.866;30.298;2023-04-03T10:01:22;15.2;13;7.2
57798;PMS7003;43626;53.866;30.298;2023-04-03T10:06:20;14.6;13.4;7.2
57798;PMS7003;43626;53.866;30.298;2023-04-03T10:11:20;14.3;12.3;6.8
57798;PMS7003;43626;53.866;30.298;2023-04-03T10:16:20;9.2;9;6.2
57798;PMS7003;43626;53.866;30.298;2023-04-03T10:21:44;9.8;8.4;5.4
57798;PMS7003;43626;53.866;30.298;2023-04-03T10:26:23;10.8;8.8;5.2
57798;PMS7003;43626;53.866;30.298;2023-04-03T10:31:11;11;10.4;5.6
57798;PMS7003;43626;53.866;30.298;2023-04-03T10:36:12;8.8;7.4;4.8
57798;PMS7003;43626;53.866;30.298;2023-04-03T10:41:30;10.2;7.2;4.2
57798;PMS7003;43626;53.866;30.298;2023-04-03T10:46:43;9.6;8.4;4.8
57798;PMS7003;43626;53.866;30.298;2023-04-03T10:51:01;9.8;8.6;5
57798;PMS7003;43626;53.866;30.298;2023-04-03T10:56:01;11.6;9;5.4
57798;PMS7003;43626;53.866;30.298;2023-04-03T11:01:24;16.6;12.4;6.6
57798;PMS7003;43626;53.866;30.298;2023-04-03T11:06:31;10.8;8.6;5.2
57798;PMS7003;43626;53.866;30.298;2023-04-03T11:11:44;9.8;7.6;4.2
57798;PMS7003;43626;53.866;30.298;2023-04-03T11:16:21;8.8;7.8;4.8
57798;PMS7003;43626;53.866;30.298;2023-04-03T11:21:11;11.2;9.6;4.8
57798;PMS7003;43626;53.866;30.298;2023-04-03T11:26:18;33.2;25.8;13
57798;PMS7003;43626;53.866;30.298;2023-04-03T11:31:13;23.2;17.2;9.8
57798;PMS7003;43626;53.866;30.298;2023-04-03T11:36:44;10.6;10.4;6.2
57798;PMS7003;43626;53.866;30.298;2023-04-03T11:41:10;12.2;9.2;6
57798;PMS7003;43626;53.866;30.298;2023-04-03T11:46:20;11;8.8;5.4
57798;PMS7003;43626;53.866;30.298;2023-04-03T11:51:51;15.4;13.2;8.6
57798;PMS7003;43626;53.866;30.298;2023-04-03T11:56:30;12.4;11.6;7.2
57798;PMS7003;43626;53.866;30.298;2023-04-03T12:01:44;12.2;10.2;5.4
57798;PMS7003;43626;53.866;30.298;2023-04-03T12:06:53;13.2;10.2;6.4
57798;PMS7003;43626;53.866;30.298;2023-04-03T12:11:23;23.2;19.8;12
57798;PMS7003;43626;53.866;30.298;2023-04-03T12:16:20;19.3;16.8;10.3
57798;PMS7003;43626;53.866;30.298;2023-04-03T12:22:34;11;9.4;5.6
57798;PMS7003;43626;53.866;30.298;2023-04-03T12:26:44;11;9.2;5.6
57798;PMS7003;43626;53.866;30.298;2023-04-03T12:31:35;9.2;7.4;4.8
57798;PMS7003;43626;53.866;30.298;2023-04-03T12:36:08;10.4;9.8;6
57798;PMS7003;43626;53.866;30.298;2023-04-03T12:41:23;11;9.8;6.4
57798;PMS7003;43626;53.866;30.298;2023-04-03T12:46:33;14.6;12.2;7
57798;PMS7003;43626;53.866;30.298;2023-04-03T12:51:44;25.6;20;11.6
57798;PMS7003;43626;53.866;30.298;2023-04-03T12:56:30;20.8;16.2;10
57798;PMS7003;43626;53.866;30.298;2023-04-03T13:01:10;14.2;11.4;6.6
57798;PMS7003;43626;53.866;30.298;2023-04-03T13:06:00;15.6;11.6;6
57798;PMS7003;43626;53.866;30.298;2023-04-03T13:11:30;13.8;11.6;6.4
57798;PMS7003;43626;53.866;30.298;2023-04-03T13:16:40;17.5;15.8;9.3
57798;PMS7003;43626;53.866;30.298;2023-04-03T13:21:21;12.4;9.6;5.4
57798;PMS7003;43626;53.866;30.298;2023-04-03T13:26:00;10.4;7.2;4.2
57798;PMS7003;43626;53.866;30.298;2023-04-03T13:31:17;11;8.2;4.6
57798;PMS7003;43626;53.866;30.298;2023-04-03T13:36:30;10.8;9.6;5
57798;PMS7003;43626;53.866;30.298;2023-04-03T13:41:48;11;7.8;5
57798;PMS7003;43626;53.866;30.298;2023-04-03T13:46:30;14.4;12.6;7
57798;PMS7003;43626;53.866;30.298;2023-04-03T13:51:00;20.8;17;9.8
57798;PMS7003;43626;53.866;30.298;2023-04-03T13:56:25;17.6;15.4;9.4
57798;PMS7003;43626;53.866;30.298;2023-04-03T14:01:33;23.6;21.6;12.6
57798;PMS7003;43626;53.866;30.298;2023-04-03T14:06:44;20;17.4;10
57798;PMS7003;43626;53.866;30.298;2023-04-03T14:11:30;17.8;15;9.4
57798;PMS7003;43626;53.866;30.298;2023-04-03T14:16:29;14.5;12;8
57798;PMS7003;43626;53.866;30.298;2023-04-03T14:21:22;18.6;15.4;9.2
57798;PMS7003;43626;53.866;30.298;2023-04-03T14:26:30;15.4;13.2;7.2
57798;PMS7003;43626;53.866;30.298;2023-04-03T14:31:44;12.6;10.4;6.2
57798;PMS7003;43626;53.866;30.298;2023-04-03T14:36:30;12.6;10;5.4
57798;PMS7003;43626;53.866;30.298;2023-04-03T14:41:23;13.4;10.4;6
57798;PMS7003;43626;53.866;30.298;2023-04-03T14:46:00;9.4;8;4.8
57798;PMS7003;43626;53.866;30.298;2023-04-03T14:51:30;13.2;10.6;6.4
57798;PMS7003;43626;53.866;30.298;2023-04-03T14:56:26;16.6;14.4;8.2
57798;PMS7003;43626;53.866;30.298;2023-04-03T15:01:44;11.7;10.3;5.3
57798;PMS7003;43626;53.866;30.298;2023-04-03T15:06:14;7.4;5.8;3.8
57798;PMS7003;43626;53.866;30.298;2023-04-03T15:11:00;6.2;5.2;3.2
57798;PMS7003;43626;53.866;30.298;2023-04-03T15:16:44;6.8;5.8;3.6
57798;PMS7003;43626;53.866;30.298;2023-04-03T15:21:30;9.8;8.4;5.4
57798;PMS7003;43626;53.866;30.298;2023-04-03T15:26:44;15.8;12.8;7.2
57798;PMS7003;43626;53.866;30.298;2023-04-03T15:31:30;13.2;11.4;6.4
57798;PMS7003;43626;53.866;30.298;2023-04-03T15:36:20;13.6;11.6;6
57798;PMS7003;43626;53.866;30.298;2023-04-03T15:41:10;11.6;10.2;5.2
57798;PMS7003;43626;53.866;30.298;2023-04-03T15:46:48;16;11.3;6.5
57798;PMS7003;43626;53.866;30.298;2023-04-03T15:51:42;15.5;13;8
57798;PMS7003;43626;53.866;30.298;2023-04-03T15:56:00;11;8.6;5
57798;PMS7003;43626;53.866;30.298;2023-04-03T16:01:44;8.6;7.2;3.6
57798;PMS7003;43626;53.866;30.298;2023-04-03T16:06:00;12.4;10.4;6
57798;PMS7003;43626;53.866;30.298;2023-04-03T16:11:26;9.8;8.6;5.2
57798;PMS7003;43626;53.866;30.298;2023-04-03T16:16:44;13.6;11.4;6.4
57798;PMS7003;43626;53.866;30.298;2023-04-03T16:21:00;17.2;12.8;7.4
57798;PMS7003;43626;53.866;30.298;2023-04-03T16:26:46;11.6;9.2;5.6
57798;PMS7003;43626;53.866;30.298;2023-04-03T16:31:00;9.6;7.6;4.2
57798;PMS7003;43626;53.866;30.298;2023-04-03T16:36:23;14.2;11;7
57798;PMS7003;43626;53.866;30.298;2023-04-03T16:41:46;17.6;13.6;7.4
57798;PMS7003;43626;53.866;30.298;2023-04-03T16:46:10;10.6;7.6;4
57798;PMS7003;43626;53.866;30.298;2023-04-03T16:51:47;11.3;10;5.3
57798;PMS7003;43626;53.866;30.298;2023-04-03T16:56:10;10.8;9;4.4
57798;PMS7003;43626;53.866;30.298;2023-04-03T17:01:28;14.6;12.8;8.4
57798;PMS7003;43626;53.866;30.298;2023-04-03T17:06:46;13;9.6;6
57798;PMS7003;43626;53.866;30.298;2023-04-03T17:11:16;8.6;5.6;3.2
57798;PMS7003;43626;53.866;30.298;2023-04-03T17:16:46;9.8;7.6;4.2
57798;PMS7003;43626;53.866;30.298;2023-04-03T17:21:00;11.6;8.4;4.8
57798;PMS7003;43626;53.866;30.298;2023-04-03T17:26:28;9.6;7.8;4.4
57798;PMS7003;43626;53.866;30.298;2023-04-03T17:31:16;16.4;13;7.8
57798;PMS7003;43626;53.866;30.298;2023-04-03T17:36:10;12.4;10.4;5.8
57798;PMS7003;43626;53.866;30.298;2023-04-03T17:41:46;12.8;11.2;6.8
57798;PMS7003;43626;53.866;30.298;2023-04-03T17:46:00;16.4;11.2;5.6
57798;PMS7003;43626;53.866;30.298;2023-04-03T17:51:28;11;8.8;4.8
57798;PMS7003;43626;53.866;30.298;2023-04-03T17:56:04;12.3;9.5;4.5
57798;PMS7003;43626;53.866;30.298;2023-04-03T18:01:17;11.6;9.2;5
57798;PMS7003;43626;53.866;30.298;2023-04-03T18:06:47;7.8;6.4;3.6
57798;PMS7003;43626;53.866;30.298;2023-04-03T18:11:14;9.4;7.2;4
57798;PMS7003;43626;53.866;30.298;2023-04-03T18:16:24;10.4;9;4.6
57798;PMS7003;43626;53.866;30.298;2023-04-03T18:21:08;9.6;7;3.8
57798;PMS7003;43626;53.866;30.298;2023-04-03T18:26:14;8.4;6.6;3.6
57798;PMS7003;43626;53.866;30.298;2023-04-03T18:31:45;8.8;6.8;4
57798;PMS7003;43626;53.866;30.298;2023-04-03T18:35:58;11.6;7.8;4.2
57798;PMS7003;43626;53.866;30.298;2023-04-03T18:41:29;10.6;8.2;4.2
57798;PMS7003;43626;53.866;30.298;2023-04-03T18:46:10;10;8;4.4
57798;PMS7003;43626;53.866;30.298;2023-04-03T18:51:16;14.2;12.2;6.8
57798;PMS7003;43626;53.866;30.298;2023-04-03T18:56:46;11;9;5.5
57798;PMS7003;43626;53.866;30.298;2023-04-03T19:01:00;10.8;8.8;4.2
57798;PMS7003;43626;53.866;30.298;2023-04-03T19:06:28;8;5.8;3.2
57798;PMS7003;43626;53.866;30.298;2023-04-03T19:11:10;6.6;4.8;2.8
57798;PMS7003;43626;53.866;30.298;2023-04-03T19:16:16;6;4.8;2.8
57798;PMS7003;43626;53.866;30.298;2023-04-03T19:21:46;3.4;3.4;2.4
57798;PMS7003;43626;53.866;30.298;2023-04-03T19:26:11;6.8;5.2;2.8
57798;PMS7003;43626;53.866;30.298;2023-04-03T19:31:28;7.2;5.8;3.2
57798;PMS7003;43626;53.866;30.298;2023-04-03T19:36:03;7.4;5.8;3.4
57798;PMS7003;43626;53.866;30.298;2023-04-03T19:41:11;7.4;6.2;3.8
57798;PMS7003;43626;53.866;30.298;2023-04-03T19:46:46;6.8;5.8;3.4
57798;PMS7003;43626;53.866;30.298;2023-04-03T19:51:08;5.2;4.4;2.6
57798;PMS7003;43626;53.866;30.298;2023-04-03T19:56:28;5.3;5;3
57798;PMS7003;43626;53.866;30.298;2023-04-03T20:01:20;4.4;3.8;2.4
57798;PMS7003;43626;53.866;30.298;2023-04-03T20:06:16;5.2;3.8;2
57798;PMS7003;43626;53.866;30.298;2023-04-03T20:11:46;6.2;4.8;2.6
57798;PMS7003;43626;53.866;30.298;2023-04-03T20:16:10;6.6;6;3.2
57798;PMS7003;43626;53.866;30.298;2023-04-03T20:21:25;11.6;8.8;4
57798;PMS7003;43626;53.866;30.298;2023-04-03T20:26:16;12.8;9.2;4.2
57798;PMS7003;43626;53.866;30.298;2023-04-03T20:31:32;9.8;8.4;4.4
57798;PMS7003;43626;53.866;30.298;2023-04-03T20:36:46;9.4;5.6;3.8
57798;PMS7003;43626;53.866;30.298;2023-04-03T20:41:16;10.4;7.8;4.6
57798;PMS7003;43626;53.866;30.298;2023-04-03T20:46:28;9.2;6.4;3.6
57798;PMS7003;43626;53.866;30.298;2023-04-03T20:51:06;8;7;4
57798;PMS7003;43626;53.866;30.298;2023-04-03T20:56:10;6.8;4.8;2.8
57798;PMS7003;43626;53.866;30.298;2023-04-03T21:01:46;10.6;7.4;3.8
57798;PMS7003;43626;53.866;30.298;2023-04-03T21:21:15;8.6;6;3.2
57798;PMS7003;43626;53.866;30.298;2023-04-03T21:26:46;6.8;6;3.8
57798;PMS7003;43626;53.866;30.298;2023-04-03T21:31:16;7.2;5.4;2.8
57798;PMS7003;43626;53.866;30.298;2023-04-03T21:36:12;5.6;5;2.2
57798;PMS7003;43626;53.866;30.298;2023-04-03T21:41:00;5.6;3.8;2.2
57798;PMS7003;43626;53.866;30.298;2023-04-03T21:46:10;4.6;4.2;2.2
57798;PMS7003;43626;53.866;30.298;2023-04-03T21:51:46;5.8;4.6;3
57798;PMS7003;43626;53.866;30.298;2023-04-03T21:56:00;7.4;5.4;3
57798;PMS7003;43626;53.866;30.298;2023-04-03T22:01:28;7.5;6.3;3.3
57798;PMS7003;43626;53.866;30.298;2023-04-03T22:06:00;8.4;5.4;3.2
57798;PMS7003;43626;53.866;30.298;2023-04-03T22:11:16;7.8;6.4;4
57798;PMS7003;43626;53.866;30.298;2023-04-03T22:16:44;9.8;7.6;3.6
57798;PMS7003;43626;53.866;30.298;2023-04-03T22:21:10;8.4;6;3.6
57798;PMS7003;43626;53.866;30.298;2023-04-03T22:26:28;8.4;7.6;4
57798;PMS7003;43626;53.866;30.298;2023-04-03T22:31:10;9.8;6.2;3.6
57798;PMS7003;43626;53.866;30.298;2023-04-03T22:36:16;9;5.8;3.2
57798;PMS7003;43626;53.866;30.298;2023-04-03T22:41:44;7.4;6;3.4
57798;PMS7003;43626;53.866;30.298;2023-04-03T22:46:16;8.8;6.4;3.8
57798;PMS7003;43626;53.866;30.298;2023-04-03T22:51:06;6;5.2;3.4
57798;PMS7003;43626;53.866;30.298;2023-04-03T22:56:00;6.8;5.2;2.8
57798;PMS7003;43626;53.866;30.298;2023-04-03T23:01:10;6.8;5.3;3.5
57798;PMS7003;43626;53.866;30.298;2023-04-03T23:06:44;7.8;5.4;3
57798;PMS7003;43626;53.866;30.298;2023-04-03T23:11:16;7.2;5.6;3.4
57798;PMS7003;43626;53.866;30.298;2023-04-03T23:16:28;10.6;7.8;3.4
57798;PMS7003;43626;53.866;30.298;2023-04-03T23:21:00;9.2;6.8;3.4
57798;PMS7003;43626;53.866;30.298;2023-04-03T23:26:28;7.8;6;3.4
57798;PMS7003;43626;53.866;30.298;2023-04-03T23:31:42;9;7.6;4
57798;PMS7003;43626;53.866;30.298;2023-04-03T23:36:14;9.4;8;3.8
57798;PMS7003;43626;53.866;30.298;2023-04-03T23:41:00;8.4;7.4;4
57798;PMS7003;43626;53.866;30.298;2023-04-03T23:46:00;8;6;3
57798;PMS7003;43626;53.866;30.298;2023-04-03T23:51:14;7;6.4;3.6
57798;PMS7003;43626;53.866;30.298;2023-04-03T23:56:40;8.2;6.2;3.8
